Time;durP1;ratioP1;P1;durP2;ratioP2;P2;SDS_P1;SDS_P2;PMS_P1;PMS_P2;Temp;Humidity;BMP_temperature;BMP_pressure;BME280_temperature;BME280_humidity;BME280_pressure;Samples;Min_cycle;Max_cycle;Signal;HPM_P1;HPM_P2
2021/09/11 00:01:49;;;;;;;10.57;9.48;;;;;;;;;;5012292;28;20022;-52
2021/09/11 00:04:20;;;;;;;10.27;9.18;;;;;;;;;;5011281;28;20393;-54
2021/09/11 00:06:46;;;;;;;11.38;9.57;;;;;;;;;;5010843;28;20022;-54
2021/09/11 00:09:14;;;;;;;14.47;10.23;;;;;;;;;;5012548;28;20132;-52
2021/09/11 00:11:45;;;;;;;11.73;9.75;;;;;;;;;;5013342;28;20284;-55
2021/09/11 00:14:25;;;;;;;12.38;9.98;;;;;;;;;;5015851;28;20064;-54
2021/09/11 00:17:06;;;;;;;12.82;10.27;;;;;;;;;;5014352;28;20042;-53
2021/09/11 00:19:31;;;;;;;13.57;10.20;;;;;;;;;;5015677;28;20024;-53
2021/09/11 00:21:56;;;;;;;12.48;10.15;;;;;;;;;;5015769;28;20384;-50
2021/09/11 00:24:25;;;;;;;10.87;9.77;;;;;;;;;;5015745;28;20524;-51
2021/09/11 00:26:55;;;;;;;13.15;10.10;;;;;;;;;;5014558;28;20272;-53
2021/09/11 00:29:20;;;;;;;12.38;10.05;;;;;;;;;;5015483;28;20017;-51
2021/09/11 00:31:53;;;;;;;12.35;9.85;;;;;;;;;;5015579;28;20116;-50
2021/09/11 00:34:18;;;;;;;13.35;11.10;;;;;;;;;;5014256;28;20018;-51
2021/09/11 00:36:44;;;;;;;13.00;10.57;;;;;;;;;;5007555;28;20501;-51
2021/09/11 00:39:27;;;;;;;11.80;9.48;;;;;;;;;;4994549;28;20018;-55
2021/09/11 00:41:55;;;;;;;14.90;10.38;;;;;;;;;;4995853;28;20110;-53
2021/09/11 00:44:21;;;;;;;12.48;10.27;;;;;;;;;;5013563;28;20104;-55
2021/09/11 00:46:46;;;;;;;13.47;10.97;;;;;;;;;;5013909;28;20068;-55
2021/09/11 00:49:11;;;;;;;11.30;9.47;;;;;;;;;;5015200;28;20276;-54
2021/09/11 00:51:37;;;;;;;12.35;10.35;;;;;;;;;;5015176;28;20288;-55
2021/09/11 00:54:03;;;;;;;14.20;11.43;;;;;;;;;;5014996;28;20018;-58
2021/09/11 00:56:32;;;;;;;12.85;9.68;;;;;;;;;;5013775;28;20041;-55
2021/09/11 00:58:58;;;;;;;15.65;10.77;;;;;;;;;;5015806;28;20097;-58
2021/09/11 01:01:23;;;;;;;13.85;11.02;;;;;;;;;;5015040;28;20093;-55
2021/09/11 01:03:49;;;;;;;14.23;11.43;;;;;;;;;;5015013;28;20022;-52
2021/09/11 01:06:14;;;;;;;12.18;10.93;;;;;;;;;;5014961;28;20359;-51
2021/09/11 01:08:51;;;;;;;13.93;11.47;;;;;;;;;;5015075;28;20049;-56
2021/09/11 01:11:17;;;;;;;15.88;11.73;;;;;;;;;;5014848;28;20277;-54
2021/09/11 01:13:45;;;;;;;12.85;10.27;;;;;;;;;;5014623;28;20110;-50
2021/09/11 01:16:10;;;;;;;12.30;10.48;;;;;;;;;;5014548;28;20021;-54
2021/09/11 01:18:36;;;;;;;11.70;10.40;;;;;;;;;;4982463;23;20047;-58
2021/09/11 01:21:10;;;;;;;11.77;10.05;;;;;;;;;;4954402;28;20023;-55
2021/09/11 01:23:41;;;;;;;13.27;10.43;;;;;;;;;;4955385;28;20071;-53
2021/09/11 01:26:13;;;;;;;14.95;10.88;;;;;;;;;;4956385;28;20457;-54
2021/09/11 01:28:41;;;;;;;12.95;11.02;;;;;;;;;;4974302;28;20386;-55
2021/09/11 01:31:12;;;;;;;13.43;10.57;;;;;;;;;;4975502;28;20050;-53
2021/09/11 01:33:46;;;;;;;12.98;10.95;;;;;;;;;;4974347;28;20019;-53
2021/09/11 01:36:11;;;;;;;12.88;10.60;;;;;;;;;;4971326;28;20022;-56
2021/09/11 01:38:39;;;;;;;12.30;10.57;;;;;;;;;;4975409;28;20030;-54
2021/09/11 01:41:09;;;;;;;15.18;12.00;;;;;;;;;;4974210;28;20038;-53
2021/09/11 01:43:41;;;;;;;14.05;10.75;;;;;;;;;;4975432;28;20033;-55
2021/09/11 01:46:09;;;;;;;13.55;10.43;;;;;;;;;;4974121;28;20023;-55
2021/09/11 01:48:42;;;;;;;12.77;10.68;;;;;;;;;;4975121;28;20490;-53
2021/09/11 01:51:07;;;;;;;15.25;11.80;;;;;;;;;;4972529;28;20475;-52
2021/09/11 01:53:32;;;;;;;13.53;10.90;;;;;;;;;;4968083;28;20026;-58
2021/09/11 01:55:58;;;;;;;13.03;11.47;;;;;;;;;;4973901;28;20268;-52
2021/09/11 01:58:26;;;;;;;14.00;11.52;;;;;;;;;;4975046;28;20752;-57
2021/09/11 02:00:57;;;;;;;16.73;11.00;;;;;;;;;;4975089;28;20027;-53
2021/09/11 02:03:22;;;;;;;14.98;11.40;;;;;;;;;;4974845;28;20046;-54
2021/09/11 02:05:47;;;;;;;14.20;12.00;;;;;;;;;;4974946;28;20069;-50
2021/09/11 02:08:13;;;;;;;12.95;11.55;;;;;;;;;;4975077;28;20103;-56
2021/09/11 02:10:41;;;;;;;13.40;11.77;;;;;;;;;;4974877;28;20567;-55
2021/09/11 02:13:12;;;;;;;14.13;11.90;;;;;;;;;;4974762;28;20019;-54
2021/09/11 02:15:37;;;;;;;12.52;11.02;;;;;;;;;;4974837;28;20030;-56
2021/09/11 02:18:03;;;;;;;11.65;10.38;;;;;;;;;;4974037;28;20390;-52
2021/09/11 02:20:28;;;;;;;14.30;12.02;;;;;;;;;;4961757;28;20022;-53
2021/09/11 02:23:02;;;;;;;12.57;10.67;;;;;;;;;;4974676;28;20037;-55
2021/09/11 02:25:30;;;;;;;14.38;10.88;;;;;;;;;;4969742;28;20267;-55
2021/09/11 02:27:56;;;;;;;12.52;11.23;;;;;;;;;;4969236;28;20470;-55
2021/09/11 02:30:23;;;;;;;13.43;11.02;;;;;;;;;;4974406;28;20027;-53
2021/09/11 02:32:51;;;;;;;12.63;10.85;;;;;;;;;;4973143;28;20027;-53
2021/09/11 02:35:17;;;;;;;16.90;11.55;;;;;;;;;;4972925;28;20043;-53
2021/09/11 02:37:42;;;;;;;12.30;10.80;;;;;;;;;;4974239;28;20058;-52
2021/09/11 02:40:07;;;;;;;13.07;11.57;;;;;;;;;;4957121;28;20270;-57
2021/09/11 02:42:36;;;;;;;12.63;11.18;;;;;;;;;;4974305;28;20262;-59
2021/09/11 02:45:05;;;;;;;15.73;11.05;;;;;;;;;;4974313;28;20019;-58
2021/09/11 02:47:33;;;;;;;14.57;10.52;;;;;;;;;;4973967;28;20105;-58
2021/09/11 02:50:01;;;;;;;13.27;10.77;;;;;;;;;;4974213;28;20029;-58
2021/09/11 02:52:35;;;;;;;12.02;10.43;;;;;;;;;;4974023;28;20134;-57
2021/09/11 02:55:07;;;;;;;11.75;10.10;;;;;;;;;;4972929;28;20023;-58
2021/09/11 02:57:35;;;;;;;12.73;9.93;;;;;;;;;;4973877;28;20015;-58
2021/09/11 03:00:07;;;;;;;13.80;11.07;;;;;;;;;;4972524;28;20493;-58
2021/09/11 03:02:38;;;;;;;14.95;10.93;;;;;;;;;;4974053;28;20030;-55
2021/09/11 03:05:07;;;;;;;12.25;9.77;;;;;;;;;;4974053;28;20598;-58
2021/09/11 03:07:35;;;;;;;11.63;9.85;;;;;;;;;;4973855;28;20026;-57
2021/09/11 03:10:03;;;;;;;11.68;10.45;;;;;;;;;;4973924;28;20019;-55
2021/09/11 03:12:31;;;;;;;13.07;10.30;;;;;;;;;;4973564;28;20027;-57
2021/09/11 03:14:57;;;;;;;13.35;10.43;;;;;;;;;;4956604;28;20481;-58
2021/09/11 03:17:25;;;;;;;14.10;10.77;;;;;;;;;;4973572;28;20049;-56
2021/09/11 03:19:50;;;;;;;12.43;9.70;;;;;;;;;;4962256;28;20354;-57
2021/09/11 03:22:21;;;;;;;15.95;9.55;;;;;;;;;;4969400;28;20050;-58
2021/09/11 03:24:46;;;;;;;12.10;9.70;;;;;;;;;;4973763;28;20174;-57
2021/09/11 03:27:12;;;;;;;12.33;9.93;;;;;;;;;;4973494;28;20619;-58
2021/09/11 03:29:37;;;;;;;11.80;9.75;;;;;;;;;;4973685;28;20289;-50
2021/09/11 03:32:11;;;;;;;13.03;9.50;;;;;;;;;;4973572;28;20070;-54
2021/09/11 03:34:45;;;;;;;10.93;8.85;;;;;;;;;;4973628;28;20737;-54
2021/09/11 03:37:11;;;;;;;10.65;9.55;;;;;;;;;;4972323;28;20022;-54
2021/09/11 03:39:39;;;;;;;11.23;9.97;;;;;;;;;;4973453;28;20021;-51
2021/09/11 03:42:04;;;;;;;13.30;9.52;;;;;;;;;;4972723;28;20305;-56
2021/09/11 03:44:41;;;;;;;12.68;9.85;;;;;;;;;;4972724;28;20058;-57
2021/09/11 03:47:16;;;;;;;13.13;9.43;;;;;;;;;;4974538;28;20026;-58
2021/09/11 03:49:41;;;;;;;10.88;9.65;;;;;;;;;;4976511;28;20109;-58
2021/09/11 03:52:06;;;;;;;11.13;9.93;;;;;;;;;;4977283;28;20431;-57
2021/09/11 03:54:32;;;;;;;12.07;9.70;;;;;;;;;;4959948;28;20270;-55
2021/09/11 03:56:57;;;;;;;12.57;9.97;;;;;;;;;;4976038;28;20269;-58
2021/09/11 03:59:25;;;;;;;11.48;9.15;;;;;;;;;;4977267;28;20337;-58
2021/09/11 04:01:51;;;;;;;13.00;8.98;;;;;;;;;;4977265;28;20109;-58
2021/09/11 04:04:22;;;;;;;11.82;9.73;;;;;;;;;;4977243;28;20018;-55
2021/09/11 04:06:50;;;;;;;14.35;9.02;;;;;;;;;;4975877;28;20030;-57
2021/09/11 04:09:16;;;;;;;9.88;8.63;;;;;;;;;;4975833;28;20094;-57
2021/09/11 04:11:41;;;;;;;10.18;9.02;;;;;;;;;;4976995;28;20015;-57
2021/09/11 04:14:18;;;;;;;10.65;9.30;;;;;;;;;;4975776;28;20029;-56
2021/09/11 04:16:44;;;;;;;9.95;8.30;;;;;;;;;;4977112;28;20565;-59
2021/09/11 04:19:09;;;;;;;10.30;9.05;;;;;;;;;;4972275;28;20085;-56
2021/09/11 04:21:37;;;;;;;10.37;9.13;;;;;;;;;;4962987;28;20035;-58
2021/09/11 04:24:06;;;;;;;11.00;9.65;;;;;;;;;;4976136;28;20341;-57
2021/09/11 04:26:32;;;;;;;10.98;9.43;;;;;;;;;;4976899;28;20030;-57
2021/09/11 04:28:57;;;;;;;10.27;8.43;;;;;;;;;;4976877;28;20023;-55
2021/09/11 04:31:25;;;;;;;10.93;9.70;;;;;;;;;;4975654;28;20030;-52
2021/09/11 04:33:53;;;;;;;10.63;9.00;;;;;;;;;;4976460;28;20270;-57
2021/09/11 04:36:22;;;;;;;10.40;8.82;;;;;;;;;;4975918;28;20019;-57
2021/09/11 04:38:47;;;;;;;10.05;8.70;;;;;;;;;;4976596;28;20514;-54
2021/09/11 04:41:24;;;;;;;10.43;8.40;;;;;;;;;;4975383;28;20026;-56
2021/09/11 04:43:50;;;;;;;10.35;8.60;;;;;;;;;;4976573;28;20266;-57
2021/09/11 04:46:15;;;;;;;10.43;9.00;;;;;;;;;;4976544;28;20015;-58
2021/09/11 04:48:46;;;;;;;10.90;9.55;;;;;;;;;;4976326;28;20266;-55
2021/09/11 04:51:11;;;;;;;15.00;8.95;;;;;;;;;;4976411;28;20046;-52
2021/09/11 04:53:37;;;;;;;11.18;9.73;;;;;;;;;;4976267;28;20525;-53
2021/09/11 04:56:08;;;;;;;12.13;9.60;;;;;;;;;;4974991;28;20065;-55
2021/09/11 04:58:33;;;;;;;12.38;9.32;;;;;;;;;;4974635;28;20266;-51
2021/09/11 05:01:01;;;;;;;11.97;9.47;;;;;;;;;;4976190;28;20030;-56
2021/09/11 05:03:29;;;;;;;10.70;9.18;;;;;;;;;;4976090;28;20262;-54
2021/09/11 05:06:03;;;;;;;13.98;9.48;;;;;;;;;;4974929;28;20486;-54
2021/09/11 05:08:28;;;;;;;13.20;9.77;;;;;;;;;;4974742;28;20033;-55
2021/09/11 05:10:56;;;;;;;16.23;9.90;;;;;;;;;;4975951;28;20481;-54
2021/09/11 05:13:24;;;;;;;11.85;8.55;;;;;;;;;;4975754;28;20293;-53
2021/09/11 05:15:50;;;;;;;10.77;9.55;;;;;;;;;;4975965;28;20023;-52
2021/09/11 05:18:15;;;;;;;11.07;8.95;;;;;;;;;;4975582;28;20521;-57
2021/09/11 05:20:43;;;;;;;10.93;9.40;;;;;;;;;;4949956;28;20102;-50
2021/09/11 05:23:11;;;;;;;12.55;9.20;;;;;;;;;;4959906;28;20101;-54
2021/09/11 05:25:36;;;;;;;10.13;8.35;;;;;;;;;;4975681;28;20029;-52
2021/09/11 05:28:02;;;;;;;11.07;9.90;;;;;;;;;;4968100;28;20018;-54
2021/09/11 05:30:30;;;;;;;10.95;9.70;;;;;;;;;;4958222;28;20294;-55
2021/09/11 05:32:55;;;;;;;10.60;9.55;;;;;;;;;;4958860;28;20053;-52
2021/09/11 05:35:23;;;;;;;10.87;9.20;;;;;;;;;;4955132;28;20438;-53
2021/09/11 05:37:51;;;;;;;13.27;9.50;;;;;;;;;;4959214;28;20266;-55
2021/09/11 05:40:17;;;;;;;10.70;9.40;;;;;;;;;;4956971;28;20027;-57
2021/09/11 05:42:42;;;;;;;15.55;10.07;;;;;;;;;;4975409;28;20101;-52
2021/09/11 05:45:10;;;;;;;13.00;10.20;;;;;;;;;;4959832;28;20386;-56
2021/09/11 05:47:36;;;;;;;10.50;9.32;;;;;;;;;;4949692;28;20680;-51
2021/09/11 05:50:01;;;;;;;9.80;8.80;;;;;;;;;;4966654;28;20046;-52
2021/09/11 05:52:26;;;;;;;11.98;9.55;;;;;;;;;;4968620;28;20118;-51
2021/09/11 05:54:52;;;;;;;13.93;10.05;;;;;;;;;;4968529;28;20470;-55
2021/09/11 05:57:17;;;;;;;13.70;11.53;;;;;;;;;;4960507;28;20070;-54
2021/09/11 05:59:42;;;;;;;16.00;12.05;;;;;;;;;;4958877;28;20754;-51
2021/09/11 06:02:12;;;;;;;12.70;10.20;;;;;;;;;;4974432;28;20027;-51
2021/09/11 06:04:37;;;;;;;12.63;9.50;;;;;;;;;;4965775;28;20266;-51
2021/09/11 06:07:03;;;;;;;11.57;9.77;;;;;;;;;;4952910;28;20030;-52
2021/09/11 06:09:28;;;;;;;12.75;9.95;;;;;;;;;;4949645;28;20267;-52
2021/09/11 06:11:54;;;;;;;16.10;9.87;;;;;;;;;;4953261;28;20026;-55
2021/09/11 06:14:19;;;;;;;13.25;10.43;;;;;;;;;;4954884;28;20025;-57
2021/09/11 06:16:54;;;;;;;12.95;10.63;;;;;;;;;;4973760;28;20033;-55
2021/09/11 06:19:19;;;;;;;13.68;10.93;;;;;;;;;;4967191;28;20073;-55
2021/09/11 06:21:44;;;;;;;12.17;10.67;;;;;;;;;;4962623;28;20157;-58
2021/09/11 06:24:12;;;;;;;16.30;11.40;;;;;;;;;;4973308;28;20273;-57
2021/09/11 06:26:38;;;;;;;15.93;11.90;;;;;;;;;;4973230;28;20416;-55
2021/09/11 06:29:03;;;;;;;17.47;13.93;;;;;;;;;;4974587;28;20015;-57
2021/09/11 06:31:31;;;;;;;19.93;16.87;;;;;;;;;;4973238;28;20283;-58
2021/09/11 06:34:02;;;;;;;21.65;17.10;;;;;;;;;;4973461;28;20361;-58
2021/09/11 06:36:28;;;;;;;20.42;15.02;;;;;;;;;;4974279;28;20033;-57
2021/09/11 06:38:53;;;;;;;16.17;14.07;;;;;;;;;;4974376;28;20026;-54
2021/09/11 06:41:21;;;;;;;15.85;13.20;;;;;;;;;;4974388;28;20093;-57
2021/09/11 06:43:46;;;;;;;15.10;11.55;;;;;;;;;;4974458;28;20430;-56
2021/09/11 06:46:11;;;;;;;14.43;10.85;;;;;;;;;;4974275;28;20120;-55
2021/09/11 06:48:37;;;;;;;11.53;10.33;;;;;;;;;;4972697;28;20113;-55
2021/09/11 06:51:02;;;;;;;12.10;10.43;;;;;;;;;;4974001;28;20310;-56
2021/09/11 06:53:27;;;;;;;13.35;10.05;;;;;;;;;;4973877;28;20266;-58
2021/09/11 06:55:53;;;;;;;15.37;9.23;;;;;;;;;;4973085;28;20038;-56
2021/09/11 06:58:18;;;;;;;12.82;9.23;;;;;;;;;;4974071;28;20074;-59
2021/09/11 07:00:56;;;;;;;12.53;9.27;;;;;;;;;;4973834;28;20110;-58
2021/09/11 07:03:21;;;;;;;12.32;9.30;;;;;;;;;;4972582;28;20648;-59
2021/09/11 07:05:46;;;;;;;9.40;8.40;;;;;;;;;;4972502;28;20018;-58
2021/09/11 07:08:11;;;;;;;9.73;8.60;;;;;;;;;;4973747;28;20091;-56
2021/09/11 07:10:43;;;;;;;11.00;8.40;;;;;;;;;;4973762;28;20553;-58
2021/09/11 07:13:11;;;;;;;10.38;9.05;;;;;;;;;;4972419;28;20031;-59
2021/09/11 07:15:43;;;;;;;10.18;8.65;;;;;;;;;;4973766;28;20054;-59
2021/09/11 07:18:08;;;;;;;11.70;10.10;;;;;;;;;;4973730;28;20073;-59
2021/09/11 07:20:40;;;;;;;12.63;10.50;;;;;;;;;;4955156;28;20024;-59
2021/09/11 07:23:08;;;;;;;14.27;9.63;;;;;;;;;;4971987;28;20622;-59
2021/09/11 07:25:33;;;;;;;11.95;9.85;;;;;;;;;;4973739;28;20089;-59
2021/09/11 07:27:59;;;;;;;10.15;9.10;;;;;;;;;;4973436;28;20027;-59
2021/09/11 07:30:24;;;;;;;11.88;9.85;;;;;;;;;;4973509;28;20486;-60
2021/09/11 07:32:49;;;;;;;13.23;10.70;;;;;;;;;;4973294;28;20074;-59
2021/09/11 07:35:24;;;;;;;11.43;9.88;;;;;;;;;;4956151;28;20277;-59
2021/09/11 07:37:52;;;;;;;12.98;10.40;;;;;;;;;;4973424;28;20019;-59
2021/09/11 07:40:26;;;;;;;12.93;10.27;;;;;;;;;;4972239;28;20019;-59
2021/09/11 07:43:02;;;;;;;13.70;10.85;;;;;;;;;;4973348;28;20023;-59
2021/09/11 07:45:27;;;;;;;13.20;10.52;;;;;;;;;;4973189;28;20027;-59
2021/09/11 07:47:53;;;;;;;12.38;10.73;;;;;;;;;;4973367;28;20545;-59
2021/09/11 07:50:25;;;;;;;12.47;10.13;;;;;;;;;;4971980;28;20034;-60
2021/09/11 07:52:50;;;;;;;12.98;10.82;;;;;;;;;;4973782;28;20737;-59
2021/09/11 07:55:22;;;;;;;14.63;10.95;;;;;;;;;;4972013;28;20023;-59
2021/09/11 07:57:47;;;;;;;15.63;11.23;;;;;;;;;;4973145;28;20022;-59
2021/09/11 08:00:12;;;;;;;13.83;11.23;;;;;;;;;;4973162;28;20029;-59
2021/09/11 08:02:37;;;;;;;15.30;12.48;;;;;;;;;;4973294;28;20038;-57
2021/09/11 08:05:03;;;;;;;15.25;12.55;;;;;;;;;;4972801;28;20059;-54
2021/09/11 08:07:31;;;;;;;13.10;11.50;;;;;;;;;;4973289;28;20034;-58
2021/09/11 08:09:56;;;;;;;13.88;11.43;;;;;;;;;;4973219;28;20077;-60
2021/09/11 08:12:24;;;;;;;12.90;10.60;;;;;;;;;;4973143;28;20386;-59
2021/09/11 08:14:50;;;;;;;14.38;11.05;;;;;;;;;;4973046;28;20254;-59
2021/09/11 08:17:15;;;;;;;13.13;10.30;;;;;;;;;;4972985;28;20055;-57
2021/09/11 08:19:40;;;;;;;11.70;10.20;;;;;;;;;;4963238;28;20023;-57
2021/09/11 08:22:05;;;;;;;11.93;9.23;;;;;;;;;;4963913;28;20313;-59
2021/09/11 08:24:31;;;;;;;11.57;9.47;;;;;;;;;;4971722;28;20293;-59
2021/09/11 08:26:56;;;;;;;11.52;9.90;;;;;;;;;;4972894;28;20657;-59
2021/09/11 08:29:21;;;;;;;10.70;9.60;;;;;;;;;;4971668;28;20713;-59
2021/09/11 08:31:46;;;;;;;11.50;9.27;;;;;;;;;;4971635;28;20844;-59
2021/09/11 08:34:12;;;;;;;9.20;7.93;;;;;;;;;;4976400;28;20266;-57
2021/09/11 08:36:37;;;;;;;9.25;8.23;;;;;;;;;;4976836;28;20262;-57
2021/09/11 08:39:03;;;;;;;9.50;7.90;;;;;;;;;;4976320;28;20141;-58
2021/09/11 08:41:29;;;;;;;8.18;6.53;;;;;;;;;;4975175;28;20030;-58
2021/09/11 08:43:59;;;;;;;7.82;6.95;;;;;;;;;;4976205;28;20031;-55
2021/09/11 08:46:26;;;;;;;9.27;7.15;;;;;;;;;;4976345;28;20027;-55
2021/09/11 08:48:51;;;;;;;7.43;6.65;;;;;;;;;;4976345;28;20018;-57
2021/09/11 08:51:16;;;;;;;8.10;7.10;;;;;;;;;;4974849;28;20064;-54
2021/09/11 08:53:41;;;;;;;9.40;7.90;;;;;;;;;;4975935;28;20259;-59
2021/09/11 08:56:07;;;;;;;9.53;7.83;;;;;;;;;;4976047;28;20258;-58
2021/09/11 08:58:35;;;;;;;10.15;7.75;;;;;;;;;;4975966;28;20077;-59
2021/09/11 09:01:03;;;;;;;8.88;7.60;;;;;;;;;;4976226;28;20034;-58
2021/09/11 09:03:31;;;;;;;8.73;7.35;;;;;;;;;;4975989;28;20022;-59
2021/09/11 09:06:14;;;;;;;9.13;6.97;;;;;;;;;;4974787;28;20022;-57
2021/09/11 09:08:43;;;;;;;9.88;7.30;;;;;;;;;;4975731;28;20030;-59
2021/09/11 09:11:28;;;;;;;10.32;7.10;;;;;;;;;;4975835;28;20125;-59
2021/09/11 09:13:55;;;;;;;8.10;6.50;;;;;;;;;;4975832;28;20098;-56
2021/09/11 09:16:21;;;;;;;8.75;7.10;;;;;;;;;;4974688;28;20073;-58
2021/09/11 09:18:46;;;;;;;7.45;6.45;;;;;;;;;;4972499;28;20051;-59
2021/09/11 09:21:29;;;;;;;7.38;6.68;;;;;;;;;;4957642;28;20066;-59
2021/09/11 09:23:58;;;;;;;8.10;6.35;;;;;;;;;;4975807;28;20022;-56
2021/09/11 09:26:24;;;;;;;6.70;6.00;;;;;;;;;;4974341;28;20050;-59
2021/09/11 09:28:58;;;;;;;9.00;6.40;;;;;;;;;;4975921;28;20105;-55
2021/09/11 09:31:24;;;;;;;7.00;6.28;;;;;;;;;;4975487;28;20075;-58
2021/09/11 09:33:49;;;;;;;7.07;6.38;;;;;;;;;;4975395;28;20492;-56
2021/09/11 09:36:16;;;;;;;8.40;7.50;;;;;;;;;;4974225;28;20112;-56
2021/09/11 09:38:57;;;;;;;6.38;5.78;;;;;;;;;;4975586;28;20262;-56
2021/09/11 09:41:26;;;;;;;7.00;5.55;;;;;;;;;;4974161;28;20057;-56
2021/09/11 09:43:57;;;;;;;5.80;5.05;;;;;;;;;;4973083;28;20482;-55
2021/09/11 09:46:22;;;;;;;6.65;5.60;;;;;;;;;;4973975;28;20801;-55
2021/09/11 09:48:51;;;;;;;6.28;5.38;;;;;;;;;;4973812;28;20110;-51
2021/09/11 09:51:19;;;;;;;6.38;5.75;;;;;;;;;;4975069;28;20026;-56
2021/09/11 09:53:51;;;;;;;8.07;5.63;;;;;;;;;;4974001;28;20390;-55
2021/09/11 09:56:19;;;;;;;7.70;5.95;;;;;;;;;;4973594;28;20014;-56
2021/09/11 09:58:45;;;;;;;7.00;6.30;;;;;;;;;;4973925;28;20034;-51
2021/09/11 10:01:16;;;;;;;8.18;7.30;;;;;;;;;;4973787;28;20022;-55
2021/09/11 10:03:41;;;;;;;8.07;7.28;;;;;;;;;;4973227;28;20029;-53
2021/09/11 10:06:28;;;;;;;10.23;6.63;;;;;;;;;;4974040;28;20034;-57
2021/09/11 10:08:58;;;;;;;6.75;5.70;;;;;;;;;;4973621;28;20019;-53
2021/09/11 10:11:32;;;;;;;6.75;6.05;;;;;;;;;;4973429;28;20023;-52
2021/09/11 10:14:13;;;;;;;7.03;5.00;;;;;;;;;;4974669;28;20030;-55
2021/09/11 10:16:58;;;;;;;5.90;5.30;;;;;;;;;;4974584;28;20022;-56
2021/09/11 10:19:24;;;;;;;7.82;5.50;;;;;;;;;;4966592;28;20043;-54
2021/09/11 10:21:50;;;;;;;6.28;5.38;;;;;;;;;;4961806;28;20117;-57
2021/09/11 10:24:21;;;;;;;6.50;4.90;;;;;;;;;;4974571;28;20110;-55
2021/09/11 10:26:47;;;;;;;6.18;5.53;;;;;;;;;;4975297;28;20410;-55
2021/09/11 10:29:31;;;;;;;6.13;5.35;;;;;;;;;;4974767;28;20026;-53
2021/09/11 10:32:06;;;;;;;7.82;6.35;;;;;;;;;;4973025;28;20035;-58
2021/09/11 10:34:56;;;;;;;6.50;5.15;;;;;;;;;;4974387;28;20089;-53
2021/09/11 10:37:43;;;;;;;4.72;3.67;;;;;;;;;;4974255;28;20029;-56
2021/09/11 10:40:14;;;;;;;5.80;3.72;;;;;;;;;;4974368;28;20060;-54
2021/09/11 10:42:58;;;;;;;5.05;3.92;;;;;;;;;;4974071;28;20533;-54
2021/09/11 10:45:42;;;;;;;4.18;3.50;;;;;;;;;;4972918;28;20037;-55
2021/09/11 10:48:26;;;;;;;3.50;3.20;;;;;;;;;;4974117;28;20510;-56
2021/09/11 10:51:10;;;;;;;3.67;3.33;;;;;;;;;;4973765;28;20023;-52
2021/09/11 10:53:38;;;;;;;4.63;4.22;;;;;;;;;;4973873;28;20098;-56
2021/09/11 10:56:21;;;;;;;5.70;4.38;;;;;;;;;;4973933;28;20278;-59
2021/09/11 10:59:06;;;;;;;4.60;4.20;;;;;;;;;;4973778;28;20478;-55
2021/09/11 11:01:51;;;;;;;5.57;4.60;;;;;;;;;;4973816;28;20089;-56
2021/09/11 11:04:21;;;;;;;5.13;4.25;;;;;;;;;;4972511;28;20019;-54
2021/09/11 11:06:50;;;;;;;4.90;4.30;;;;;;;;;;4973748;28;20090;-54
2021/09/11 11:09:20;;;;;;;4.57;3.92;;;;;;;;;;4973843;28;20026;-57
2021/09/11 11:11:48;;;;;;;4.45;4.05;;;;;;;;;;4973498;28;20048;-55
2021/09/11 11:14:14;;;;;;;5.82;4.53;;;;;;;;;;4972531;28;20051;-57
2021/09/11 11:16:52;;;;;;;5.30;4.22;;;;;;;;;;4973485;28;20019;-55
2021/09/11 11:19:24;;;;;;;4.22;3.83;;;;;;;;;;4966551;28;20561;-52
2021/09/11 11:21:54;;;;;;;4.30;3.58;;;;;;;;;;4962100;28;20033;-56
2021/09/11 11:24:46;;;;;;;4.05;3.65;;;;;;;;;;4973578;28;20590;-53
2021/09/11 11:27:12;;;;;;;5.57;3.90;;;;;;;;;;4970927;28;20031;-52
2021/09/11 11:29:38;;;;;;;4.10;3.70;;;;;;;;;;4973527;28;20031;-52
2021/09/11 11:32:05;;;;;;;4.18;3.78;;;;;;;;;;4972195;28;20086;-53
2021/09/11 11:34:30;;;;;;;4.85;4.20;;;;;;;;;;4972214;28;20097;-56
2021/09/11 11:37:00;;;;;;;4.30;3.90;;;;;;;;;;4972113;28;20113;-54
2021/09/11 11:39:27;;;;;;;4.85;4.22;;;;;;;;;;4973456;28;20422;-51
2021/09/11 11:42:07;;;;;;;4.25;3.85;;;;;;;;;;4972126;28;20085;-53
2021/09/11 11:44:41;;;;;;;6.35;4.00;;;;;;;;;;4973420;28;20034;-53
2021/09/11 11:47:26;;;;;;;4.80;4.22;;;;;;;;;;4971870;28;20041;-54
2021/09/11 11:49:54;;;;;;;4.30;3.75;;;;;;;;;;4973568;28;20023;-54
2021/09/11 11:52:24;;;;;;;3.78;3.47;;;;;;;;;;4972054;28;20117;-52
2021/09/11 11:54:50;;;;;;;5.10;3.67;;;;;;;;;;4971989;28;20023;-55
2021/09/11 11:57:17;;;;;;;5.20;4.03;;;;;;;;;;4973196;28;20019;-55
2021/09/11 11:59:43;;;;;;;3.88;3.38;;;;;;;;;;4973152;28;20073;-52
2021/09/11 12:02:15;;;;;;;3.95;3.55;;;;;;;;;;4973232;28;20019;-54
2021/09/11 12:04:44;;;;;;;4.88;4.05;;;;;;;;;;4971952;28;20101;-52
2021/09/11 12:07:09;;;;;;;4.70;4.30;;;;;;;;;;4974019;28;20027;-55
2021/09/11 12:09:34;;;;;;;6.80;4.60;;;;;;;;;;4969872;28;20027;-53
2021/09/11 12:12:04;;;;;;;5.90;5.30;;;;;;;;;;4958197;28;20298;-56
2021/09/11 12:14:29;;;;;;;4.82;4.43;;;;;;;;;;4954281;28;20101;-58
2021/09/11 12:16:55;;;;;;;5.80;5.20;;;;;;;;;;4977051;28;20538;-59
2021/09/11 12:19:32;;;;;;;4.88;4.30;;;;;;;;;;4969160;28;20122;-57
2021/09/11 12:21:57;;;;;;;4.40;4.00;;;;;;;;;;4966040;28;20428;-58
2021/09/11 12:24:24;;;;;;;5.03;4.53;;;;;;;;;;4976743;28;20098;-57
2021/09/11 12:26:49;;;;;;;4.82;4.43;;;;;;;;;;4976689;28;20265;-56
2021/09/11 12:29:26;;;;;;;5.57;4.17;;;;;;;;;;4976758;28;20022;-57
2021/09/11 12:32:00;;;;;;;4.63;4.22;;;;;;;;;;4976622;28;20392;-58
2021/09/11 12:34:26;;;;;;;4.13;3.80;;;;;;;;;;4976541;28;20109;-55
2021/09/11 12:37:04;;;;;;;4.50;4.10;;;;;;;;;;4976506;28;20426;-60
2021/09/11 12:39:37;;;;;;;4.80;4.10;;;;;;;;;;4975322;28;20023;-57
2021/09/11 12:42:03;;;;;;;4.70;3.88;;;;;;;;;;4976418;28;20027;-58
2021/09/11 12:44:32;;;;;;;3.88;3.58;;;;;;;;;;4975553;28;20089;-56
2021/09/11 12:47:05;;;;;;;4.07;3.67;;;;;;;;;;4976255;28;20030;-58
2021/09/11 12:49:38;;;;;;;3.58;3.28;;;;;;;;;;4976261;28;20046;-58
2021/09/11 12:52:08;;;;;;;5.20;3.72;;;;;;;;;;4976294;28;20030;-58
2021/09/11 12:54:33;;;;;;;2.90;2.70;;;;;;;;;;4975114;28;20023;-52
2021/09/11 12:56:58;;;;;;;3.15;2.90;;;;;;;;;;4976099;28;20474;-50
2021/09/11 12:59:26;;;;;;;3.83;2.90;;;;;;;;;;4976126;28;20031;-53
2021/09/11 13:01:52;;;;;;;3.17;2.88;;;;;;;;;;4972264;28;20035;-55
2021/09/11 13:04:19;;;;;;;3.47;3.17;;;;;;;;;;4955522;28;20378;-51
2021/09/11 13:06:44;;;;;;;3.30;3.00;;;;;;;;;;4973337;28;20026;-52
2021/09/11 13:09:10;;;;;;;3.15;2.80;;;;;;;;;;4974762;28;20029;-54
2021/09/11 13:11:36;;;;;;;3.83;3.42;;;;;;;;;;4975584;28;20131;-52
2021/09/11 13:14:06;;;;;;;3.85;3.42;;;;;;;;;;4974424;28;20069;-53
2021/09/11 13:16:38;;;;;;;4.93;3.15;;;;;;;;;;4975759;28;20101;-58
2021/09/11 13:19:04;;;;;;;3.10;2.90;;;;;;;;;;4970843;28;20043;-57
2021/09/11 13:21:30;;;;;;;3.33;2.83;;;;;;;;;;4961610;28;20394;-58
2021/09/11 13:23:55;;;;;;;2.85;2.65;;;;;;;;;;4975803;28;20041;-58
2021/09/11 13:26:22;;;;;;;3.58;2.60;;;;;;;;;;4975607;28;20061;-57
2021/09/11 13:28:51;;;;;;;3.33;3.03;;;;;;;;;;4975971;28;20033;-58
2021/09/11 13:31:16;;;;;;;3.13;2.78;;;;;;;;;;4975238;28;20474;-58
2021/09/11 13:33:42;;;;;;;3.35;3.05;;;;;;;;;;4975557;28;20021;-57
2021/09/11 13:36:07;;;;;;;3.40;3.10;;;;;;;;;;4974204;28;20046;-55
2021/09/11 13:38:33;;;;;;;3.25;2.95;;;;;;;;;;4974161;28;20258;-57
2021/09/11 13:41:06;;;;;;;3.70;3.40;;;;;;;;;;4875604;28;20042;-56
2021/09/11 13:43:31;;;;;;;4.30;3.17;;;;;;;;;;4975371;28;20488;-53
2021/09/11 13:46:03;;;;;;;3.03;2.83;;;;;;;;;;4973877;28;20037;-57
2021/09/11 13:48:38;;;;;;;5.40;3.10;;;;;;;;;;4975033;28;20274;-57
2021/09/11 13:51:03;;;;;;;6.22;3.10;;;;;;;;;;4974217;28;20122;-54
2021/09/11 13:53:28;;;;;;;3.45;2.97;;;;;;;;;;4973984;28;20050;-55
2021/09/11 13:55:56;;;;;;;3.03;2.70;;;;;;;;;;4975050;28;20027;-56
2021/09/11 13:58:25;;;;;;;3.30;2.97;;;;;;;;;;4974738;28;20266;-54
2021/09/11 14:00:50;;;;;;;3.13;2.67;;;;;;;;;;4943597;28;136881;-55
2021/09/11 14:03:15;;;;;;;3.33;3.03;;;;;;;;;;4946470;28;68045;-55
2021/09/11 14:05:42;;;;;;;3.10;2.60;;;;;;;;;;4974993;28;20349;-53
2021/09/11 14:08:07;;;;;;;3.38;2.85;;;;;;;;;;4973485;28;20849;-60
2021/09/11 14:10:32;;;;;;;3.47;3.17;;;;;;;;;;4973586;28;20102;-60
2021/09/11 14:15:23;;;;;;;3.65;3.35;;;;;;;;;;4918348;28;20406;-61
2021/09/11 14:17:51;;;;;;;3.33;3.03;;;;;;;;;;5049243;28;20036;-61
2021/09/11 14:20:18;;;;;;;4.70;3.60;;;;;;;;;;5049489;28;20048;-61
2021/09/11 14:22:44;;;;;;;3.80;3.50;;;;;;;;;;5048201;28;20057;-60
2021/09/11 14:25:10;;;;;;;4.65;4.03;;;;;;;;;;5049524;28;20483;-60
2021/09/11 14:27:38;;;;;;;5.05;3.53;;;;;;;;;;5049265;28;20025;-60
2021/09/11 14:30:04;;;;;;;4.78;4.28;;;;;;;;;;5048602;28;20036;-60
2021/09/11 14:32:29;;;;;;;5.60;4.15;;;;;;;;;;5049458;28;20027;-61
2021/09/11 14:34:55;;;;;;;5.70;4.37;;;;;;;;;;5064605;28;20472;-60
2021/09/11 14:37:20;;;;;;;5.27;4.20;;;;;;;;;;5049102;28;20295;-58
2021/09/11 14:39:45;;;;;;;6.30;4.47;;;;;;;;;;5049239;28;20274;-58
2021/09/11 14:42:10;;;;;;;6.37;4.40;;;;;;;;;;5048984;28;20029;-58